Regina International Airport
CYQR : now visible

Airfield :











YOU CAN JOIN US ON...

 
LOGIN :

Register | Disclaimer

   EN    FR    IT 

 









Legend :    VFR   Marginal VFR   IFR   Intensive IFR   Very Intensive IFR
Visi :
Ceiling :
>= 8 km
>= 3000ft
5 to 8 km
1000 to 3000 ft
1500m to 5 km
500 to 1000 ft
800 to 1500m
200 to 500 ft
< 800m
< 200 ft
Symbols :   Thunderstorms  Fog  Heavy snow  Heavy precipitations  Wind > 20 kt






- Airport Elevation : 1894 ft
- IATA code : YQR


CYQR - Regina International

CURRENT METAR :
  • 041600Z 17012KT 15SM FEW012 FEW060 FEW080 20/16 A3000 RMK SC1SC1AC1 SC TR SC TR SLP162 DENSITY ALT 2900FT

EXPIRED METARs :
  • 041500Z 17008KT 15SM FEW010 SCT077 19/16 A3001 RMK SF1AC4 SF TR SLP165 DENSITY ALT 2700FT
  • 041400Z 18007KT 15SM FEW005 FEW060 SCT120 15/15 A3000 RMK SF1SC1AC4 SF TR SC TR SLP163 DENSITY ALT 2300FT
  • 041350Z 17007KT 15SM FEW008 FEW060 SCT120 15/14 A3000 RMK SF1SC1AC2 SF TR SLP162 DENSITY ALT 2300FT

TAF AMD TAF CYQR
Valid from the 04 at 12:00 until the 05 at 12:00 UTC


041211Z 0412/0512 12010KT P6SM SCT020 BKN050
TEMPO 0412/0414 5SM -SHRA BR VCTS BKN020 OVC050CB
FM041400 13010KT P6SM SCT050 BKN100
BECMG 0414/0416 20012G22KT FEW050 SCT100
FM041700 28015G25KT P6SM SCT040 SCT100
FM042000 31015G25KT P6SM BKN050
PROB40 0420/0423 VRB15G25KT 5SM TSRA OVC040CB
FM042300 33015G25KT P6SM SCT050 SCT100
BECMG 0501/0503 34006KT
FM050500 28008KT P6SM SKC RMK NXT FCST BY 041800Z
CZWG FIR / North America



MET'MAP, your aeronautical weather chart ! - Copyright ORBIFLY December 2007 - Disclaimer

ORBIFLY MET'MAP TEAM :

Programming & Development : Alexandra Zaïnal
Concept & original design : Baudouin d'Aumeries
Assistance for programming : Marc-Olivier Méhu
Technical & hardware support : Manuel Goepfert

Contact : metmap@orbifly.com




SOURCES & CREDITS :

   NOAA       Earth
Advisory